Possum Trot, Mississippi
Current Conditions -  °F | °C
As of 2:53 PM on Saturday 25 Oct 2014 (Local Time) from KTUP Reporting Station
Clear Clear  
Wind Chill: 81°   Ceiling: Unl
Heat Index: 82°   Visibility: 10mi
Dew Point: 61°   Wind: 5mph
Humidity: 50%   Direction: 320°NW
Pressure: 30.04"   Gusts: NA
Location:  34.1762°N, 88.9612°W
Report Text: KTUP 251953Z 32004KT 10SM CLR 27/16 A3004 RMK AO2 SLP169 T02720161 $
Loading
Personal Weather Stations






























Interactive Weather Map
Tropical Storm Tracking
New forecast layout! Learn more

10-Day Weather Forecast

Advertisements
Track Severe Weather on mobile